PILOTS ONLINE: 490    ATC ONLINE: 116

KAVX

Catalina Airport

Location

IATA CIB
City Avalon
Country  United States
Latitude 33° 24' 17" N
Longitude 118° 24' 57" W
Elevation 1602 ft
Type Small Airport

Map

Weather

METAR
2014/10/20 17:51
KAVX 201751Z AUTO 28006KT 10SM CLR 18/14 A2998 RMK AO2 SLP140 T01830144 10189 20144 51012
TAF
No TAF available

Runways

04/22 3000 ft / 60 ft

Outbound flights

Callsign Flying to Pilot ATD/STD ETA Aircraft

Inbound flights

Callsign Flying from Pilot ATD ETA Aircraft